createdAt,value
2018-09-12T00:00:36.978Z,13.46
2018-09-12T00:01:36.966Z,13.43
2018-09-12T00:02:36.937Z,13.42
2018-09-12T00:03:36.929Z,13.40
2018-09-12T00:04:36.914Z,13.38
2018-09-12T00:05:36.899Z,13.38
2018-09-12T00:06:36.888Z,13.37
2018-09-12T00:07:36.881Z,13.38
2018-09-12T00:08:36.870Z,13.37
2018-09-12T00:09:36.861Z,13.37
2018-09-12T00:10:36.849Z,13.35
2018-09-12T00:11:36.834Z,13.38
2018-09-12T00:12:36.826Z,13.38
2018-09-12T00:13:36.811Z,13.40
2018-09-12T00:14:36.802Z,13.40
2018-09-12T00:15:36.806Z,13.38
2018-09-12T00:16:36.791Z,13.35
2018-09-12T00:17:36.770Z,13.37
2018-09-12T00:18:36.759Z,13.37
2018-09-12T00:19:36.748Z,13.38
2018-09-12T00:20:36.736Z,13.38
2018-09-12T00:21:36.724Z,13.40
2018-09-12T00:22:36.714Z,13.40
2018-09-12T00:23:36.705Z,13.37
2018-09-12T00:24:36.694Z,13.35
2018-09-12T00:25:36.682Z,13.31
2018-09-12T00:26:36.681Z,13.29
2018-09-12T00:27:36.672Z,13.29
2018-09-12T00:28:36.652Z,13.27
2018-09-12T00:29:36.641Z,13.25
2018-09-12T00:30:36.631Z,13.22
2018-09-12T00:31:36.616Z,13.19
2018-09-12T00:32:36.609Z,13.16
2018-09-12T00:33:36.594Z,13.14
2018-09-12T00:34:36.585Z,13.12
2018-09-12T00:35:36.574Z,13.09
2018-09-12T00:36:36.576Z,13.06
2018-09-12T00:37:36.551Z,13.04
2018-09-12T00:38:36.539Z,12.99
2018-09-12T00:39:36.527Z,12.98
2018-09-12T00:40:36.518Z,12.96
2018-09-12T00:41:36.515Z,12.96
2018-09-12T00:42:36.495Z,12.96
2018-09-12T00:43:36.485Z,12.94
2018-09-12T00:44:36.472Z,12.92
2018-09-12T00:45:36.463Z,12.92
2018-09-12T00:46:36.454Z,12.92
2018-09-12T00:47:36.442Z,12.91
2018-09-12T00:48:36.427Z,12.89
2018-09-12T00:49:36.418Z,12.89
2018-09-12T00:50:36.406Z,12.89
2018-09-12T00:51:36.396Z,12.88
2018-09-12T00:52:36.384Z,12.89
2018-09-12T00:53:36.373Z,12.89
2018-09-12T00:54:36.365Z,12.94
2018-09-12T00:55:36.353Z,12.94
2018-09-12T00:56:36.339Z,12.95
2018-09-12T00:57:36.328Z,12.95
2018-09-12T00:58:36.320Z,12.92
2018-09-12T00:59:36.316Z,12.89
2018-09-12T01:00:36.297Z,12.87
2018-09-12T01:01:36.288Z,12.85
2018-09-12T01:02:36.276Z,12.81
2018-09-12T01:03:36.282Z,12.77
2018-09-12T01:04:36.256Z,12.76
2018-09-12T01:05:36.244Z,12.70
2018-09-12T01:06:36.231Z,12.66
2018-09-12T01:07:36.219Z,12.67
2018-09-12T01:08:36.207Z,12.63
2018-09-12T01:09:36.198Z,12.58
2018-09-12T01:10:36.186Z,12.57
2018-09-12T01:11:36.175Z,12.54
2018-09-12T01:12:36.166Z,12.53
2018-09-12T01:13:36.157Z,12.50
2018-09-12T01:14:36.152Z,12.50
2018-09-12T01:15:36.142Z,12.51
2018-09-12T01:16:36.123Z,12.48
2018-09-12T01:17:36.115Z,12.48
2018-09-12T01:18:36.105Z,12.48
2018-09-12T01:19:36.093Z,12.50
2018-09-12T01:20:36.077Z,12.50
2018-09-12T01:21:36.071Z,12.51
2018-09-12T01:22:36.057Z,12.53
2018-09-12T01:23:36.046Z,12.53
2018-09-12T01:24:36.041Z,12.54
2018-09-12T01:25:36.023Z,12.51
2018-09-12T01:26:36.012Z,12.51
2018-09-12T01:27:36.002Z,12.51
2018-09-12T01:28:35.989Z,12.51
2018-09-12T01:38:12.765Z,12.45
2018-09-12T01:39:12.743Z,12.45
2018-09-12T01:40:12.730Z,12.45
2018-09-12T01:41:12.725Z,12.45
2018-09-12T01:42:12.709Z,12.45
2018-09-12T01:43:12.700Z,12.45
2018-09-12T01:44:12.688Z,12.48
2018-09-12T01:45:12.679Z,12.47
2018-09-12T01:46:12.681Z,12.45
2018-09-12T01:47:12.665Z,12.43
2018-09-12T01:48:12.646Z,12.43
2018-09-12T01:49:12.632Z,12.42
2018-09-12T01:50:12.620Z,12.39
2018-09-12T01:51:12.612Z,12.37
2018-09-12T01:52:12.599Z,12.37
2018-09-12T01:53:12.586Z,12.36
2018-09-12T01:54:12.578Z,12.35
2018-09-12T01:55:12.567Z,12.33
2018-09-12T01:56:12.556Z,12.33
2018-09-12T01:57:12.545Z,12.30
2018-09-12T01:58:12.535Z,12.29
2018-09-12T01:59:12.522Z,12.30
2018-09-12T02:00:12.515Z,12.29
2018-09-12T02:01:12.502Z,12.25
2018-09-12T02:02:12.491Z,12.24
2018-09-12T02:03:12.536Z,12.22
2018-09-12T02:04:12.469Z,12.20
2018-09-12T02:05:12.458Z,12.18
2018-09-12T02:06:12.445Z,12.15
2018-09-12T02:07:12.434Z,12.15
2018-09-12T02:08:12.422Z,12.12
2018-09-12T02:09:12.411Z,12.11
2018-09-12T02:10:12.402Z,12.10
2018-09-12T02:11:12.400Z,12.10
2018-09-12T02:12:12.384Z,12.07
2018-09-12T02:13:12.369Z,12.07
2018-09-12T02:14:12.359Z,12.04
2018-09-12T02:15:12.348Z,12.02
2018-09-12T02:16:12.338Z,12.02
2018-09-12T02:17:12.327Z,12.02
2018-09-12T02:18:12.317Z,11.99
2018-09-12T02:19:12.303Z,11.99
2018-09-12T02:20:12.296Z,12.00
2018-09-12T02:21:12.283Z,12.00
2018-09-12T02:22:12.272Z,12.02
2018-09-12T02:23:12.260Z,12.02
2018-09-12T02:24:12.248Z,12.03
2018-09-12T02:25:12.238Z,12.03
2018-09-12T02:26:12.226Z,12.00
2018-09-12T02:27:12.214Z,11.99
2018-09-12T02:28:12.206Z,11.96
2018-09-12T02:29:12.195Z,11.95
2018-09-12T02:30:12.183Z,11.92
2018-09-12T02:31:12.175Z,11.90
2018-09-12T02:32:12.167Z,11.87
2018-09-12T02:33:12.151Z,11.82
2018-09-12T02:34:12.142Z,11.79
2018-09-12T02:35:12.130Z,11.79
2018-09-12T02:36:12.119Z,11.78
2018-09-12T02:37:12.115Z,11.75
2018-09-12T02:38:12.101Z,11.75
2018-09-12T02:39:12.094Z,11.72
2018-09-12T02:40:12.074Z,11.69
2018-09-12T02:41:12.063Z,11.67
2018-09-12T02:42:12.055Z,11.66
2018-09-12T02:43:12.040Z,11.63
2018-09-12T02:44:12.031Z,11.63
2018-09-12T02:45:12.019Z,11.64
2018-09-12T02:46:12.008Z,11.64
2018-09-12T02:47:11.999Z,11.64
2018-09-12T02:48:11.985Z,11.66
2018-09-12T02:49:11.976Z,11.63
2018-09-12T02:50:11.964Z,11.63
2018-09-12T02:51:11.956Z,11.62
2018-09-12T02:52:11.944Z,11.62
2018-09-12T02:53:11.934Z,11.60
2018-09-12T02:54:11.922Z,11.59
2018-09-12T02:55:11.912Z,11.57
2018-09-12T02:56:11.900Z,11.56
2018-09-12T02:57:11.889Z,11.53
2018-09-12T02:58:11.878Z,11.53
2018-09-12T02:59:11.866Z,11.51
2018-09-12T03:00:11.854Z,11.49
2018-09-12T03:01:11.848Z,11.49
2018-09-12T03:02:11.835Z,11.49
2018-09-12T03:03:11.822Z,11.48
2018-09-12T03:04:11.811Z,11.48
2018-09-12T03:05:11.803Z,11.48
2018-09-12T03:06:11.790Z,11.48
2018-09-12T03:07:11.778Z,11.48
2018-09-12T03:08:11.768Z,11.51
2018-09-12T03:09:11.759Z,11.49
2018-09-12T03:10:11.765Z,11.51
2018-09-12T03:11:11.735Z,11.51
2018-09-12T03:12:11.725Z,11.49
2018-09-12T03:13:11.723Z,11.49
2018-09-12T03:14:11.703Z,11.48
2018-09-12T03:15:11.692Z,11.51
2018-09-12T03:16:11.682Z,11.49
2018-09-12T03:17:11.671Z,11.49
2018-09-12T03:18:11.658Z,11.51
2018-09-12T03:19:11.647Z,11.53
2018-09-12T03:20:11.638Z,11.53
2018-09-12T03:21:11.720Z,11.53
2018-09-12T03:22:11.620Z,11.54
2018-09-12T03:23:11.604Z,11.57
2018-09-12T03:24:11.598Z,11.57
2018-09-12T03:25:11.584Z,11.57
2018-09-12T03:26:11.572Z,11.57
2018-09-12T03:27:11.565Z,11.53
2018-09-12T03:28:11.551Z,11.53
2018-09-12T03:29:11.540Z,11.49
2018-09-12T03:30:11.531Z,11.46
2018-09-12T03:31:11.521Z,11.46
2018-09-12T03:32:11.507Z,11.48
2018-09-12T03:33:11.495Z,11.46
2018-09-12T03:34:11.485Z,11.45
2018-09-12T03:35:11.474Z,11.45
2018-09-12T03:36:11.463Z,11.42
2018-09-12T03:37:11.453Z,11.42
2018-09-12T03:38:11.441Z,11.44
2018-09-12T03:39:11.532Z,11.41
2018-09-12T03:40:11.421Z,11.41
2018-09-12T03:41:11.409Z,11.39
2018-09-12T03:42:11.402Z,11.38
2018-09-12T03:43:11.407Z,11.36
2018-09-12T03:44:11.376Z,11.35
2018-09-12T03:45:11.364Z,11.33
2018-09-12T03:46:11.352Z,11.30
2018-09-12T03:47:11.343Z,11.30
2018-09-12T03:48:11.497Z,11.28
2018-09-12T03:49:11.321Z,11.26
2018-09-12T03:50:11.310Z,11.24
2018-09-12T03:51:11.299Z,11.23
2018-09-12T03:52:11.290Z,11.23
2018-09-12T03:53:11.284Z,11.21
2018-09-12T03:54:11.270Z,11.21
2018-09-12T03:55:11.257Z,11.19
2018-09-12T03:56:11.251Z,11.18
2018-09-12T03:57:11.230Z,11.16
2018-09-12T03:58:11.224Z,11.15
2018-09-12T03:59:11.212Z,11.11
2018-09-12T04:00:11.205Z,11.10
2018-09-12T04:01:11.189Z,11.08
2018-09-12T04:02:11.178Z,11.05
2018-09-12T04:03:11.165Z,11.04
2018-09-12T04:04:11.156Z,11.04
2018-09-12T04:05:11.147Z,11.02
2018-09-12T04:06:11.134Z,11.01
2018-09-12T04:07:11.125Z,11.00
2018-09-12T04:08:11.111Z,10.98
2018-09-12T04:09:11.105Z,10.98
2018-09-12T04:10:11.093Z,10.97
2018-09-12T04:11:11.080Z,10.94
2018-09-12T04:12:11.075Z,10.93
2018-09-12T04:13:11.056Z,10.93
2018-09-12T04:14:11.047Z,10.93
2018-09-12T04:15:11.041Z,10.93
2018-09-12T04:16:11.024Z,10.90
2018-09-12T04:17:11.013Z,10.92
2018-09-12T04:18:11.004Z,10.92
2018-09-12T04:19:10.991Z,10.92
2018-09-12T04:20:10.985Z,10.93
2018-09-12T04:21:10.971Z,10.94
2018-09-12T04:22:10.959Z,10.97
2018-09-12T04:23:10.951Z,10.97
2018-09-12T04:24:10.968Z,10.98
2018-09-12T04:25:10.925Z,10.97
2018-09-12T04:26:10.917Z,10.94
2018-09-12T04:27:10.904Z,10.93
2018-09-12T04:28:10.894Z,10.93
2018-09-12T04:29:10.884Z,10.89
2018-09-12T04:30:10.873Z,10.89
2018-09-12T04:31:10.863Z,10.87
2018-09-12T04:32:10.853Z,10.87
2018-09-12T04:33:10.842Z,10.87
2018-09-12T04:34:10.831Z,10.90
2018-09-12T04:35:10.817Z,10.92
2018-09-12T04:36:10.809Z,10.94
2018-09-12T04:37:10.797Z,10.94
2018-09-12T04:38:10.786Z,10.94
2018-09-12T04:39:10.774Z,10.98
2018-09-12T04:40:10.760Z,10.97
2018-09-12T04:41:10.752Z,10.98
2018-09-12T04:42:10.741Z,10.98
2018-09-12T04:43:10.728Z,10.97
2018-09-12T04:44:10.721Z,10.98
2018-09-12T04:45:10.709Z,10.98
2018-09-12T04:46:10.694Z,10.98
2018-09-12T04:47:10.685Z,10.98
2018-09-12T04:48:10.675Z,10.98
2018-09-12T04:49:10.662Z,10.97
2018-09-12T04:50:10.653Z,10.97
2018-09-12T04:51:10.639Z,10.94
2018-09-12T04:52:10.634Z,10.93
2018-09-12T04:53:10.638Z,10.90
2018-09-12T04:54:10.606Z,10.89
2018-09-12T04:55:10.608Z,10.86
2018-09-12T04:56:10.590Z,10.86
2018-09-12T04:57:10.583Z,10.86
2018-09-12T04:58:10.566Z,10.86
2018-09-12T04:59:10.554Z,10.86
2018-09-12T05:00:10.545Z,10.85
2018-09-12T05:01:10.533Z,10.85
2018-09-12T05:02:10.525Z,10.83
2018-09-12T05:03:10.512Z,10.82
2018-09-12T05:04:10.504Z,10.83
2018-09-12T05:05:10.499Z,10.82
2018-09-12T05:06:10.476Z,10.82
2018-09-12T05:07:10.468Z,10.85
2018-09-12T05:08:10.454Z,10.82
2018-09-12T05:09:10.446Z,10.82
2018-09-12T05:10:10.461Z,10.80
2018-09-12T05:11:10.422Z,10.80
2018-09-12T05:12:10.414Z,10.80
2018-09-12T05:13:10.413Z,10.82
2018-09-12T05:14:10.389Z,10.82
2018-09-12T05:15:10.379Z,10.82
2018-09-12T05:16:10.369Z,10.80
2018-09-12T05:17:10.359Z,10.80
2018-09-12T05:18:10.347Z,10.83
2018-09-12T05:19:10.340Z,10.82
2018-09-12T05:20:10.327Z,10.83
2018-09-12T05:21:10.312Z,10.85
2018-09-12T05:22:10.302Z,10.86
2018-09-12T05:23:10.294Z,10.89
2018-09-12T05:24:10.288Z,10.92
2018-09-12T05:25:10.273Z,10.93
2018-09-12T05:26:10.258Z,10.97
2018-09-12T05:27:10.248Z,10.98
2018-09-12T05:28:10.235Z,11.00
2018-09-12T05:29:10.223Z,11.02
2018-09-12T05:30:10.215Z,11.19
2018-09-12T05:31:10.213Z,11.67
2018-09-12T05:32:10.192Z,12.30
2018-09-12T05:33:10.183Z,12.84
2018-09-12T05:34:10.172Z,13.28
2018-09-12T05:35:10.191Z,13.64
2018-09-12T05:36:10.196Z,13.97
2018-09-12T05:37:10.139Z,14.24
2018-09-12T05:38:10.133Z,14.44
2018-09-12T05:39:10.118Z,14.59
2018-09-12T05:40:10.104Z,14.79
2018-09-12T05:41:10.094Z,14.99
2018-09-12T05:42:10.083Z,15.18
2018-09-12T05:43:10.072Z,15.37
2018-09-12T05:44:10.062Z,15.58
2018-09-12T05:45:10.049Z,15.71
2018-09-12T05:46:10.038Z,15.74
2018-09-12T05:47:10.030Z,15.78
2018-09-12T05:48:10.016Z,15.76
2018-09-12T05:49:10.007Z,15.78
2018-09-12T05:50:10.009Z,15.88
2018-09-12T05:51:09.997Z,15.99
2018-09-12T05:52:09.978Z,16.17
2018-09-12T05:53:09.964Z,16.29
2018-09-12T05:54:09.951Z,16.41
2018-09-12T05:55:09.945Z,16.51
2018-09-12T05:56:09.932Z,16.58
2018-09-12T05:57:09.922Z,16.65
2018-09-12T05:58:09.911Z,16.65
2018-09-12T05:59:09.899Z,16.71
2018-09-12T06:00:09.888Z,16.87
2018-09-12T06:01:09.876Z,17.07
2018-09-12T06:02:09.864Z,17.28
2018-09-12T06:03:09.852Z,17.53
2018-09-12T06:04:09.843Z,17.73
2018-09-12T06:05:09.830Z,17.93
2018-09-12T06:06:09.822Z,18.13
2018-09-12T06:07:10.020Z,18.36
2018-09-12T06:08:09.798Z,18.41
2018-09-12T06:09:09.787Z,18.42
2018-09-12T06:10:09.778Z,18.50
2018-09-12T06:11:09.766Z,18.68
2018-09-12T06:12:09.754Z,18.72
2018-09-12T06:13:09.742Z,18.84
2018-09-12T06:14:09.824Z,19.04
2018-09-12T06:15:09.722Z,19.20
2018-09-12T06:16:09.710Z,19.29
2018-09-12T06:17:09.698Z,19.42
2018-09-12T06:18:09.688Z,19.46
2018-09-12T06:19:09.677Z,19.60
2018-09-12T06:20:09.667Z,19.64
2018-09-12T06:21:09.654Z,19.67
2018-09-12T06:22:09.644Z,19.78
2018-09-12T06:23:09.633Z,19.94
2018-09-12T06:24:09.621Z,20.00
2018-09-12T06:25:09.609Z,20.08
2018-09-12T06:26:09.611Z,20.22
2018-09-12T06:27:09.592Z,20.25
2018-09-12T06:28:09.579Z,20.23
2018-09-12T06:29:09.571Z,20.30
2018-09-12T06:30:09.557Z,20.30
2018-09-12T06:31:09.550Z,20.25
2018-09-12T06:32:09.547Z,20.08
2018-09-12T06:33:09.522Z,20.12
2018-09-12T06:34:09.517Z,20.17
2018-09-12T06:35:09.501Z,20.35
2018-09-12T06:36:09.491Z,20.30
2018-09-12T06:37:09.482Z,20.35
2018-09-12T06:38:09.471Z,20.23
2018-09-12T06:39:09.458Z,20.13
2018-09-12T06:40:09.451Z,20.05
2018-09-12T06:41:09.436Z,19.90
2018-09-12T06:42:09.425Z,19.95
2018-09-12T06:43:09.415Z,19.92
2018-09-12T06:44:09.405Z,19.97
2018-09-12T06:45:09.390Z,20.00
2018-09-12T06:46:09.487Z,20.10
2018-09-12T06:47:09.369Z,20.26
2018-09-12T06:48:09.357Z,20.30
2018-09-12T06:49:09.347Z,20.17
2018-09-12T06:50:09.339Z,20.05
2018-09-12T06:51:09.332Z,20.20
2018-09-12T06:52:09.319Z,20.35
2018-09-12T06:53:09.302Z,20.50
2018-09-12T06:54:09.298Z,20.57
2018-09-12T06:55:09.282Z,20.30
2018-09-12T06:56:09.270Z,20.35
2018-09-12T06:57:09.258Z,20.56
2018-09-12T06:58:09.246Z,20.74
2018-09-12T06:59:09.241Z,20.82
2018-09-12T07:00:09.227Z,20.92
2018-09-12T07:01:09.349Z,21.22
2018-09-12T07:02:09.221Z,21.40
2018-09-12T07:03:09.192Z,21.27
2018-09-12T07:04:09.190Z,21.12
2018-09-12T07:05:09.177Z,21.18
2018-09-12T07:06:09.162Z,21.14
2018-09-12T07:07:09.149Z,21.21
2018-09-12T07:08:09.138Z,21.36
2018-09-12T07:09:09.128Z,21.21
2018-09-12T07:10:09.118Z,21.33
2018-09-12T07:11:09.103Z,21.52
2018-09-12T07:12:09.094Z,21.64
2018-09-12T07:13:09.083Z,21.74
2018-09-12T07:14:09.094Z,21.74
2018-09-12T07:15:09.064Z,21.97
2018-09-12T07:16:09.048Z,22.10
2018-09-12T07:17:09.039Z,22.20
2018-09-12T07:18:09.027Z,22.38
2018-09-12T07:19:09.015Z,22.72
2018-09-12T07:20:09.009Z,22.94
2018-09-12T07:21:08.994Z,23.04
2018-09-12T07:22:08.984Z,23.03
2018-09-12T07:23:08.974Z,23.04
2018-09-12T07:24:08.963Z,22.86
2018-09-12T07:25:08.952Z,22.70
2018-09-12T07:26:08.943Z,22.30
2018-09-12T07:27:08.929Z,22.01
2018-09-12T07:28:08.920Z,21.86
2018-09-12T07:29:08.906Z,21.67
2018-09-12T07:30:08.897Z,21.43
2018-09-12T07:31:08.885Z,21.28
2018-09-12T07:32:08.875Z,21.15
2018-09-12T07:33:08.869Z,21.04
2018-09-12T07:34:08.851Z,20.82
2018-09-12T07:35:08.845Z,20.56
2018-09-12T07:36:08.832Z,20.16
2018-09-12T07:37:08.821Z,19.70
2018-09-12T07:38:08.810Z,19.19
2018-09-12T07:39:08.801Z,18.83
2018-09-12T07:40:08.787Z,18.62
2018-09-12T07:41:08.776Z,18.46
2018-09-12T07:42:08.767Z,18.34
2018-09-12T07:43:08.753Z,18.36
2018-09-12T07:44:08.744Z,18.47
2018-09-12T07:45:08.735Z,18.59
2018-09-12T07:46:08.722Z,18.64
2018-09-12T07:47:08.712Z,18.65
2018-09-12T07:48:08.703Z,18.66
2018-09-12T07:49:08.779Z,18.72
2018-09-12T07:50:08.678Z,18.82
2018-09-12T07:51:08.673Z,18.87
2018-09-12T07:52:08.656Z,18.89
2018-09-12T07:53:08.647Z,18.90
2018-09-12T07:54:08.637Z,18.93
2018-09-12T07:55:08.630Z,19.01
2018-09-12T07:56:08.628Z,19.09
2018-09-12T07:57:08.603Z,19.16
2018-09-12T07:58:08.590Z,19.26
2018-09-12T07:59:08.587Z,19.30
2018-09-12T08:00:08.601Z,19.39
2018-09-12T08:01:08.561Z,19.46
2018-09-12T08:02:08.548Z,19.57
2018-09-12T08:03:08.600Z,19.63
2018-09-12T08:04:08.526Z,19.67
2018-09-12T08:05:08.591Z,19.71
2018-09-12T08:06:08.505Z,19.79
2018-09-12T08:07:08.493Z,19.82
2018-09-12T08:08:08.482Z,19.87
2018-09-12T08:09:08.480Z,19.95
2018-09-12T08:10:08.461Z,19.97
2018-09-12T08:11:08.452Z,19.94
2018-09-12T08:12:08.500Z,19.92
2018-09-12T08:13:08.428Z,19.90
2018-09-12T08:14:08.417Z,19.90
2018-09-12T08:15:08.406Z,19.89
2018-09-12T08:16:08.396Z,19.90
2018-09-12T08:17:08.392Z,19.90
2018-09-12T08:18:08.375Z,19.92
2018-09-12T08:19:08.440Z,19.97
2018-09-12T08:20:08.352Z,19.98
2018-09-12T08:21:08.342Z,19.97
2018-09-12T08:22:08.332Z,20.02
2018-09-12T08:23:08.317Z,20.12
2018-09-12T08:24:08.310Z,20.22
2018-09-12T08:25:08.298Z,20.35
2018-09-12T08:26:08.345Z,20.44
2018-09-12T08:27:08.276Z,20.52
2018-09-12T08:28:08.269Z,20.57
2018-09-12T08:29:08.255Z,20.63
2018-09-12T08:30:08.242Z,20.67
2018-09-12T08:31:08.238Z,20.70
2018-09-12T08:32:08.227Z,20.77
2018-09-12T08:33:08.260Z,20.84
2018-09-12T08:34:08.203Z,20.95
2018-09-12T08:35:08.191Z,21.05
2018-09-12T08:36:08.181Z,21.15
2018-09-12T08:37:08.167Z,21.22
2018-09-12T08:38:08.156Z,21.30
2018-09-12T08:39:08.151Z,21.31
2018-09-12T08:40:08.164Z,21.33
2018-09-12T08:41:08.123Z,21.33
2018-09-12T08:42:08.145Z,21.40
2018-09-12T08:43:08.102Z,21.43
2018-09-12T08:44:08.095Z,21.43
2018-09-12T08:45:08.083Z,21.40
2018-09-12T08:46:08.074Z,21.40
2018-09-12T08:47:08.062Z,21.43
2018-09-12T08:48:08.051Z,21.48
2018-09-12T08:49:08.040Z,21.53
2018-09-12T08:50:08.027Z,21.59
2018-09-12T08:51:08.018Z,21.58
2018-09-12T08:52:08.008Z,21.58
2018-09-12T08:53:07.998Z,21.71
2018-09-12T08:54:07.984Z,21.82
2018-09-12T08:55:07.973Z,21.90
2018-09-12T08:56:07.966Z,22.03
2018-09-12T08:57:07.953Z,22.05
2018-09-12T08:58:07.946Z,22.03
2018-09-12T08:59:07.931Z,22.03
2018-09-12T09:00:07.952Z,22.07
2018-09-12T09:01:07.912Z,22.05
2018-09-12T09:02:07.897Z,22.13
2018-09-12T09:03:07.890Z,22.22
2018-09-12T09:04:07.937Z,22.32
2018-09-12T09:05:07.872Z,22.41
2018-09-12T09:06:07.857Z,22.50
2018-09-12T09:07:07.848Z,22.64
2018-09-12T09:08:07.834Z,22.72
2018-09-12T09:09:07.827Z,22.79
2018-09-12T09:10:07.813Z,22.84
2018-09-12T09:11:07.803Z,22.84
2018-09-12T09:12:07.792Z,22.81
2018-09-12T09:13:07.779Z,22.76
2018-09-12T09:14:07.777Z,22.81
2018-09-12T09:15:07.806Z,22.82
2018-09-12T09:16:07.750Z,22.85
2018-09-12T09:17:07.739Z,22.89
2018-09-12T09:18:07.726Z,22.91
2018-09-12T09:19:07.719Z,22.79
2018-09-12T09:20:07.710Z,22.75
2018-09-12T09:21:07.700Z,22.76
2018-09-12T09:22:07.685Z,22.81
2018-09-12T09:23:07.673Z,22.85
2018-09-12T09:24:07.663Z,22.85
2018-09-12T09:25:07.651Z,22.89
2018-09-12T09:26:07.640Z,22.89
2018-09-12T09:27:07.628Z,22.88
2018-09-12T09:28:07.619Z,22.93
2018-09-12T09:29:07.608Z,23.00
2018-09-12T09:30:07.595Z,23.06
2018-09-12T09:31:07.587Z,23.12
2018-09-12T09:32:07.575Z,23.21
2018-09-12T09:33:07.566Z,23.25
2018-09-12T09:34:07.554Z,23.36
2018-09-12T09:35:07.570Z,23.38
2018-09-12T09:36:07.532Z,23.40
2018-09-12T09:37:07.520Z,23.41
2018-09-12T09:38:07.513Z,23.46
2018-09-12T09:39:07.499Z,23.48
2018-09-12T09:40:07.492Z,23.40
2018-09-12T09:41:07.545Z,23.43
2018-09-12T09:42:07.468Z,23.51
2018-09-12T09:43:07.462Z,23.53
2018-09-12T09:44:07.622Z,23.53
2018-09-12T09:45:07.435Z,23.52
2018-09-12T09:46:07.425Z,23.56
2018-09-12T09:47:07.413Z,23.61
2018-09-12T09:48:07.520Z,23.66
2018-09-12T09:49:07.401Z,23.59
2018-09-12T09:50:07.378Z,23.62
2018-09-12T09:51:07.367Z,23.68
2018-09-12T09:52:07.357Z,23.71
2018-09-12T09:53:07.346Z,23.78
2018-09-12T09:54:07.338Z,23.80
2018-09-12T09:55:07.394Z,23.77
2018-09-12T09:56:07.317Z,23.76
2018-09-12T09:57:07.303Z,23.73
2018-09-12T09:58:07.296Z,23.70
2018-09-12T09:59:07.282Z,23.78
2018-09-12T10:00:07.272Z,23.86
2018-09-12T10:01:07.260Z,23.92
2018-09-12T10:02:07.250Z,23.98
2018-09-12T10:03:07.236Z,24.08
2018-09-12T10:04:07.232Z,24.05
2018-09-12T10:05:07.215Z,24.06
2018-09-12T10:06:07.209Z,24.08
2018-09-12T10:07:07.193Z,23.98
2018-09-12T10:08:07.183Z,24.02
2018-09-12T10:09:07.172Z,24.08
2018-09-12T10:10:07.166Z,24.02
2018-09-12T10:11:07.151Z,24.08
2018-09-12T10:12:07.139Z,24.11
2018-09-12T10:13:07.128Z,23.98
2018-09-12T10:14:07.118Z,23.86
2018-09-12T10:15:07.106Z,23.81
2018-09-12T10:16:07.094Z,23.83
2018-09-12T10:17:07.085Z,23.85
2018-09-12T10:18:07.073Z,23.91
2018-09-12T10:19:07.064Z,23.91
2018-09-12T10:20:07.059Z,23.93
2018-09-12T10:21:07.043Z,24.04
2018-09-12T10:22:07.040Z,24.19
2018-09-12T10:23:07.021Z,24.30
2018-09-12T10:24:07.014Z,24.36
2018-09-12T10:25:06.997Z,24.31
2018-09-12T10:26:06.988Z,24.29
2018-09-12T10:27:06.977Z,24.30
2018-09-12T10:28:06.966Z,24.33
2018-09-12T10:29:06.954Z,24.42
2018-09-12T10:30:06.945Z,24.39
2018-09-12T10:31:06.933Z,24.41
2018-09-12T10:32:06.924Z,24.37
2018-09-12T10:33:06.916Z,24.46
2018-09-12T10:34:06.900Z,24.48
2018-09-12T10:35:06.891Z,24.46
2018-09-12T10:36:06.879Z,24.42
2018-09-12T10:37:06.867Z,24.42
2018-09-12T10:38:06.858Z,24.39
2018-09-12T10:39:06.853Z,24.46
2018-09-12T10:40:06.838Z,24.46
2018-09-12T10:41:06.865Z,24.61
2018-09-12T10:42:06.813Z,24.73
2018-09-12T10:43:06.803Z,24.73
2018-09-12T10:44:06.794Z,24.78
2018-09-12T10:45:06.780Z,24.96
2018-09-12T10:46:06.771Z,25.03
2018-09-12T10:47:06.761Z,25.07
2018-09-12T10:48:06.748Z,25.13
2018-09-12T10:49:06.741Z,25.10
2018-09-12T10:50:06.730Z,25.11
2018-09-12T10:51:06.717Z,25.13
2018-09-12T10:52:06.707Z,25.08
2018-09-12T10:53:06.695Z,25.04
2018-09-12T10:54:06.683Z,25.00
2018-09-12T10:55:06.672Z,25.03
2018-09-12T10:56:06.662Z,25.08
2018-09-12T10:57:06.652Z,25.13
2018-09-12T10:58:06.640Z,25.07
2018-09-12T10:59:06.680Z,24.89
2018-09-12T11:00:06.621Z,24.83
2018-09-12T11:01:06.608Z,24.86
2018-09-12T11:02:06.595Z,24.83
2018-09-12T11:03:06.588Z,24.81
2018-09-12T11:04:06.577Z,24.86
2018-09-12T11:05:06.568Z,24.86
2018-09-12T11:06:06.554Z,24.88
2018-09-12T11:07:06.541Z,24.96
2018-09-12T11:08:06.532Z,24.93
2018-09-12T11:09:06.520Z,24.93
2018-09-12T11:10:06.511Z,24.89
2018-09-12T11:11:06.502Z,24.88
2018-09-12T11:12:06.491Z,24.85
2018-09-12T11:13:06.480Z,24.81
2018-09-12T11:14:06.467Z,24.73
2018-09-12T11:15:06.461Z,24.68
2018-09-12T11:16:06.444Z,24.71
2018-09-12T11:17:06.437Z,24.70
2018-09-12T11:18:06.425Z,24.71
2018-09-12T11:19:06.414Z,24.76
2018-09-12T11:20:06.404Z,24.81
2018-09-12T11:21:06.394Z,24.83
2018-09-12T11:22:06.381Z,24.81
2018-09-12T11:23:06.372Z,24.85
2018-09-12T11:24:06.443Z,24.89
2018-09-12T11:25:06.353Z,24.93
2018-09-12T11:26:06.341Z,25.01
2018-09-12T11:27:06.351Z,25.08
2018-09-12T11:28:06.316Z,25.13
2018-09-12T11:29:06.309Z,25.07
2018-09-12T11:30:06.299Z,25.01
2018-09-12T11:31:06.285Z,25.11
2018-09-12T11:32:06.273Z,25.23
2018-09-12T11:33:06.264Z,25.28
2018-09-12T11:34:06.281Z,25.30
2018-09-12T11:35:06.246Z,25.30
2018-09-12T11:36:06.233Z,25.30
2018-09-12T11:37:06.220Z,25.33
2018-09-12T11:38:06.241Z,25.22
2018-09-12T11:39:06.201Z,25.15
2018-09-12T11:40:06.254Z,25.04
2018-09-12T11:41:06.176Z,24.97
2018-09-12T11:42:06.168Z,24.96
2018-09-12T11:43:06.154Z,25.03
2018-09-12T11:44:06.144Z,25.08
2018-09-12T11:45:06.132Z,25.19
2018-09-12T11:46:06.123Z,25.29
2018-09-12T11:47:06.113Z,25.28
2018-09-12T11:48:06.101Z,25.33
2018-09-12T11:49:06.128Z,25.35
2018-09-12T11:50:06.082Z,25.41
2018-09-12T11:51:06.071Z,25.35
2018-09-12T11:52:06.057Z,25.33
2018-09-12T11:53:06.050Z,25.37
2018-09-12T11:54:06.077Z,25.34
2018-09-12T11:55:06.026Z,25.30
2018-09-12T11:56:06.015Z,25.29
2018-09-12T11:57:06.002Z,25.34
2018-09-12T11:58:05.993Z,25.38
2018-09-12T11:59:05.983Z,25.44
2018-09-12T12:00:05.969Z,25.46
2018-09-12T12:01:05.962Z,25.46
2018-09-12T12:02:05.954Z,25.35
2018-09-12T12:03:05.937Z,25.30
2018-09-12T12:04:05.929Z,25.29
2018-09-12T12:05:05.917Z,25.35
2018-09-12T12:06:05.946Z,25.38
2018-09-12T12:07:05.897Z,25.33
2018-09-12T12:08:05.888Z,25.26
2018-09-12T12:09:05.879Z,25.25
2018-09-12T12:10:05.865Z,25.23
2018-09-12T12:11:05.852Z,25.33
2018-09-12T12:12:05.843Z,25.37
2018-09-12T12:13:05.833Z,25.35
2018-09-12T12:14:05.825Z,25.41
2018-09-12T12:15:05.810Z,25.35
2018-09-12T12:16:05.799Z,25.25
2018-09-12T12:17:05.793Z,25.21
2018-09-12T12:18:05.779Z,25.22
2018-09-12T12:19:05.774Z,25.26
2018-09-12T12:20:05.759Z,25.41
2018-09-12T12:21:05.747Z,25.53
2018-09-12T12:22:05.740Z,25.64
2018-09-12T12:23:05.739Z,25.71
2018-09-12T12:24:05.767Z,25.67
2018-09-12T12:25:05.754Z,25.56
2018-09-12T12:26:05.735Z,25.45
2018-09-12T12:27:05.719Z,25.45
2018-09-12T12:28:05.755Z,25.44
2018-09-12T12:29:05.660Z,25.45
2018-09-12T12:30:05.690Z,25.48
2018-09-12T12:31:05.676Z,25.51
2018-09-12T12:32:05.665Z,25.54
2018-09-12T12:33:05.707Z,25.57
2018-09-12T12:34:05.642Z,25.56
2018-09-12T12:35:05.639Z,25.56
2018-09-12T12:36:05.630Z,25.48
2018-09-12T12:37:05.578Z,25.46
2018-09-12T12:38:05.565Z,25.38
2018-09-12T12:39:05.556Z,25.45
2018-09-12T12:40:05.543Z,25.53
2018-09-12T12:41:05.534Z,25.60
2018-09-12T12:42:05.521Z,25.69
2018-09-12T12:43:05.511Z,25.71
2018-09-12T12:44:05.501Z,25.74
2018-09-12T12:45:05.489Z,25.66
2018-09-12T12:46:05.478Z,25.60
2018-09-12T12:47:05.469Z,25.59
2018-09-12T12:48:05.459Z,25.54
2018-09-12T12:49:05.447Z,25.53
2018-09-12T12:50:05.438Z,25.53
2018-09-12T12:51:05.425Z,25.53
2018-09-12T12:52:05.415Z,25.61
2018-09-12T12:53:05.405Z,25.63
2018-09-12T12:54:05.395Z,25.66
2018-09-12T12:55:05.384Z,25.71
2018-09-12T12:56:05.372Z,25.71
2018-09-12T12:57:05.362Z,25.63
2018-09-12T12:58:05.353Z,25.66
2018-09-12T12:59:05.340Z,25.75
2018-09-12T13:00:05.326Z,25.79
2018-09-12T13:01:05.316Z,25.78